Vega Emtoli — LAQY7 — position and weather

sailwx.info

Track history (hours):
 
Tides and Currents Weather Stations Pressure Air Temp Water Temp Dewpoint Dewpoint Depression Visibility Wind Speed Wind Dir Waves Ship Positions

Vega Emtoli

Last reported at 2017-Aug-04 07:20 UTC. Time now 2017-Dec-13 03:40 UTC.
Position N 38°01' E 023°33'.
Warning: this ship's position is months out of date.

Length 59 m; draft 4.3 m.

Type: Tug. MMSI: 258026000.

Date/timePositionNaut miles runAvg speedWind from/ knotsBaromVisibWave heightAir tempDewpointWater temp
2017-Aug-04 07:20N 38°01' E 023°33'0 0.1
2017-Aug-04 06:59N 38°01' E 023°33'0 0.0
2017-Aug-04 06:29N 38°01' E 023°33'0 0.0
2017-Aug-04 05:59N 38°01' E 023°33'0 0.0
2017-Aug-04 05:29N 38°01' E 023°33'0 0.0
2017-Aug-04 04:59N 38°01' E 023°33'0 0.0
2017-Aug-04 04:29N 38°01' E 023°33'0 0.0
2017-Aug-04 03:53N 38°01' E 023°33'0 0.0
2017-Aug-04 03:26N 38°01' E 023°33'0 0.0
2017-Aug-04 02:59N 38°01' E 023°33'0 0.0
2017-Aug-04 02:29N 38°01' E 023°33'0 0.0
2017-Aug-04 01:59N 38°01' E 023°33'0 0.0
2017-Aug-04 01:29N 38°01' E 023°33'0 0.0
2017-Aug-04 00:59N 38°01' E 023°33'0 0.0
2017-Aug-04 00:29N 38°01' E 023°33'0 0.0
2017-Aug-03 23:59N 38°01' E 023°33'0 0.0
2017-Aug-03 23:29N 38°01' E 023°33'0 0.0
2017-Aug-03 22:59N 38°01' E 023°33'0 0.0
2017-Aug-03 22:29N 38°01' E 023°33'0 0.0
2017-Aug-03 21:59N 38°01' E 023°33'0 0.0
2017-Aug-03 21:29N 38°01' E 023°33'0 0.0
2017-Aug-03 20:59N 38°01' E 023°33'0 0.0
2017-Aug-03 20:29N 38°01' E 023°33'0 0.0
2017-Aug-03 19:59N 38°01' E 023°33'0 0.0
2017-Aug-03 19:29N 38°01' E 023°33'0 0.0
2017-Aug-03 18:59N 38°01' E 023°33'0 0.0
2017-Aug-03 18:29N 38°01' E 023°33'0 0.0
2017-Aug-03 17:59N 38°01' E 023°33'0 0.0
2017-Aug-03 17:29N 38°01' E 023°33'0 0.0
2017-Aug-03 16:59N 38°01' E 023°33'0 0.0
2017-Aug-03 16:29N 38°01' E 023°33'0 0.0
2017-Aug-03 15:59N 38°01' E 023°33'0 0.0
2017-Aug-03 15:29N 38°01' E 023°33'0 0.0
2017-Aug-03 14:59N 38°01' E 023°33'0 0.0
2017-Aug-03 13:59N 38°01' E 023°33'0 0.0
2017-Aug-03 13:29N 38°01' E 023°33'0 0.1
2017-Aug-03 12:59N 38°01' E 023°33'0 0.1
2017-Aug-03 12:30N 38°01' E 023°33'1 1.9
2017-Aug-03 12:00N 38°01' E 023°32'0 0.0
2017-Aug-03 11:30N 38°01' E 023°32'0 0.0
2017-Aug-03 11:00N 38°01' E 023°32'0 0.0
2017-Aug-03 10:30N 38°01' E 023°32'0 0.0
2017-Aug-03 10:00N 38°01' E 023°32'0 0.0
2017-Aug-03 09:30N 38°01' E 023°32'0 0.0
2017-Aug-03 09:01N 38°01' E 023°32'0 0.0
2017-Aug-03 08:31N 38°01' E 023°32'0 0.1
2017-Aug-03 08:01N 38°01' E 023°32'0 0.0
2017-Aug-03 07:30N 38°01' E 023°32'2 3.1
2017-Aug-03 07:00N 37°60' E 023°33'3 6.0
2017-Aug-03 06:31N 37°57' E 023°35'3 5.2
2017-Aug-03 06:00N 37°54' E 023°35'0 0.7
2017-Aug-03 05:31N 37°54' E 023°35'0 0.0
2017-Aug-03 05:01N 37°54' E 023°35'0 0.0
2017-Aug-03 04:31N 37°54' E 023°35'0 0.0
2017-Aug-03 04:01N 37°54' E 023°35'0 0.5
2017-Aug-03 03:30N 37°54' E 023°35'0 0.6
2017-Aug-03 03:01N 37°54' E 023°35'1 2.2
2017-Aug-03 02:31N 37°53' E 023°36'3 6.0
2017-Aug-03 02:01N 37°52' E 023°39'2 4.7
2017-Aug-03 01:31N 37°50' E 023°41'3 5.0
2017-Aug-03 01:01N 37°47' E 023°42'2 4.9
2017-Aug-03 00:31N 37°45' E 023°43'2 4.9
2017-Aug-03 00:01N 37°43' E 023°45'2 4.7
2017-Aug-02 23:30N 37°41' E 023°46'2 4.7
2017-Aug-02 23:01N 37°39' E 023°47'2 4.7
2017-Aug-02 22:31N 37°36' E 023°48'2 4.6
2017-Aug-02 22:00N 37°34' E 023°49'2 4.6
2017-Aug-02 21:31N 37°32' E 023°49'3 4.7
2017-Aug-02 20:57N 37°29' E 023°49'3 5.9
2017-Aug-02 20:28N 37°27' E 023°49'4 5.8
2017-Aug-02 19:52N 37°23' E 023°48'  
2017-Jul-29 19:00N 37°58' E 009°43'4 7.7
2017-Jul-29 18:31N 37°58' E 009°39'4 7.7
2017-Jul-29 18:00N 37°57' E 009°34'4 7.6
2017-Jul-29 17:30N 37°57' E 009°29'4 7.6
2017-Jul-29 17:00N 37°56' E 009°24'4 7.5
2017-Jul-29 16:31N 37°56' E 009°20'4 7.4
2017-Jul-29 16:00N 37°55' E 009°15'4 7.4
2017-Jul-29 15:30N 37°55' E 009°10'5 7.4
2017-Jul-29 14:49N 37°54' E 009°04'6 7.7
2017-Jul-29 14:00N 37°54' E 008°56'4 7.9
2017-Jul-29 13:30N 37°53' E 008°51'4 7.8
2017-Jul-29 12:58N 37°52' E 008°46'4 7.7
2017-Jul-29 12:29N 37°52' E 008°41'4 7.6
2017-Jul-29 12:00N 37°51' E 008°37'4 7.7
2017-Jul-29 11:27N 37°51' E 008°31'4 7.7
2017-Jul-29 10:59N 37°51' E 008°27'4 7.6
2017-Jul-29 10:30N 37°50' E 008°22'4 7.6
2017-Jul-29 09:59N 37°50' E 008°17'4 7.8
2017-Jul-29 09:30N 37°49' E 008°12'4 8.4
2017-Jul-29 09:00N 37°49' E 008°07'4 8.8
2017-Jul-29 08:30N 37°48' E 008°01'  
2017-Jul-26 21:39N 37°00' E 001°55'2 4.6
2017-Jul-26 21:10N 36°59' E 001°53'  
Track history (hours):
 
Tides and Currents Weather Stations Pressure Air Temp Water Temp Dewpoint Dewpoint Depression Visibility Wind Speed Wind Dir Waves Ship Positions

Vega Emtoli

Last reported at 2017-Aug-04 07:20 UTC. Time now 2017-Dec-13 03:40 UTC.
Position N 38°01' E 023°33'.
Warning: this ship's position is months out of date.

Length 59 m; draft 4.3 m.

Type: Tug. MMSI: 258026000.

Date/timePositionNaut miles runAvg speedWind from/ knotsBaromVisibWave heightAir tempDewpointWater temp
2017-Aug-04 07:20N 38°01' E 023°33'0 0.1
2017-Aug-04 06:59N 38°01' E 023°33'0 0.0
2017-Aug-04 06:29N 38°01' E 023°33'0 0.0
2017-Aug-04 05:59N 38°01' E 023°33'0 0.0
2017-Aug-04 05:29N 38°01' E 023°33'0 0.0
2017-Aug-04 04:59N 38°01' E 023°33'0 0.0
2017-Aug-04 04:29N 38°01' E 023°33'0 0.0
2017-Aug-04 03:53N 38°01' E 023°33'0 0.0
2017-Aug-04 03:26N 38°01' E 023°33'0 0.0
2017-Aug-04 02:59N 38°01' E 023°33'0 0.0
2017-Aug-04 02:29N 38°01' E 023°33'0 0.0
2017-Aug-04 01:59N 38°01' E 023°33'0 0.0
2017-Aug-04 01:29N 38°01' E 023°33'0 0.0
2017-Aug-04 00:59N 38°01' E 023°33'0 0.0
2017-Aug-04 00:29N 38°01' E 023°33'0 0.0
2017-Aug-03 23:59N 38°01' E 023°33'0 0.0
2017-Aug-03 23:29N 38°01' E 023°33'0 0.0
2017-Aug-03 22:59N 38°01' E 023°33'0 0.0
2017-Aug-03 22:29N 38°01' E 023°33'0 0.0
2017-Aug-03 21:59N 38°01' E 023°33'0 0.0
2017-Aug-03 21:29N 38°01' E 023°33'0 0.0
2017-Aug-03 20:59N 38°01' E 023°33'0 0.0
2017-Aug-03 20:29N 38°01' E 023°33'0 0.0
2017-Aug-03 19:59N 38°01' E 023°33'0 0.0
2017-Aug-03 19:29N 38°01' E 023°33'0 0.0
2017-Aug-03 18:59N 38°01' E 023°33'0 0.0
2017-Aug-03 18:29N 38°01' E 023°33'0 0.0
2017-Aug-03 17:59N 38°01' E 023°33'0 0.0
2017-Aug-03 17:29N 38°01' E 023°33'0 0.0
2017-Aug-03 16:59N 38°01' E 023°33'0 0.0
2017-Aug-03 16:29N 38°01' E 023°33'0 0.0
2017-Aug-03 15:59N 38°01' E 023°33'0 0.0
2017-Aug-03 15:29N 38°01' E 023°33'0 0.0
2017-Aug-03 14:59N 38°01' E 023°33'0 0.0
2017-Aug-03 13:59N 38°01' E 023°33'0 0.0
2017-Aug-03 13:29N 38°01' E 023°33'0 0.1
2017-Aug-03 12:59N 38°01' E 023°33'0 0.1
2017-Aug-03 12:30N 38°01' E 023°33'1 1.9
2017-Aug-03 12:00N 38°01' E 023°32'0 0.0
2017-Aug-03 11:30N 38°01' E 023°32'0 0.0
2017-Aug-03 11:00N 38°01' E 023°32'0 0.0
2017-Aug-03 10:30N 38°01' E 023°32'0 0.0
2017-Aug-03 10:00N 38°01' E 023°32'0 0.0
2017-Aug-03 09:30N 38°01' E 023°32'0 0.0
2017-Aug-03 09:01N 38°01' E 023°32'0 0.0
2017-Aug-03 08:31N 38°01' E 023°32'0 0.1
2017-Aug-03 08:01N 38°01' E 023°32'0 0.0
2017-Aug-03 07:30N 38°01' E 023°32'2 3.1
2017-Aug-03 07:00N 37°60' E 023°33'3 6.0
2017-Aug-03 06:31N 37°57' E 023°35'3 5.2
2017-Aug-03 06:00N 37°54' E 023°35'0 0.7
2017-Aug-03 05:31N 37°54' E 023°35'0 0.0
2017-Aug-03 05:01N 37°54' E 023°35'0 0.0
2017-Aug-03 04:31N 37°54' E 023°35'0 0.0
2017-Aug-03 04:01N 37°54' E 023°35'0 0.5
2017-Aug-03 03:30N 37°54' E 023°35'0 0.6
2017-Aug-03 03:01N 37°54' E 023°35'1 2.2
2017-Aug-03 02:31N 37°53' E 023°36'3 6.0
2017-Aug-03 02:01N 37°52' E 023°39'2 4.7
2017-Aug-03 01:31N 37°50' E 023°41'3 5.0
2017-Aug-03 01:01N 37°47' E 023°42'2 4.9
2017-Aug-03 00:31N 37°45' E 023°43'2 4.9
2017-Aug-03 00:01N 37°43' E 023°45'2 4.7
2017-Aug-02 23:30N 37°41' E 023°46'2 4.7
2017-Aug-02 23:01N 37°39' E 023°47'2 4.7
2017-Aug-02 22:31N 37°36' E 023°48'2 4.6
2017-Aug-02 22:00N 37°34' E 023°49'2 4.6
2017-Aug-02 21:31N 37°32' E 023°49'3 4.7
2017-Aug-02 20:57N 37°29' E 023°49'3 5.9
2017-Aug-02 20:28N 37°27' E 023°49'4 5.8
2017-Aug-02 19:52N 37°23' E 023°48'  
2017-Jul-29 19:00N 37°58' E 009°43'4 7.7
2017-Jul-29 18:31N 37°58' E 009°39'4 7.7
2017-Jul-29 18:00N 37°57' E 009°34'4 7.6
2017-Jul-29 17:30N 37°57' E 009°29'4 7.6
2017-Jul-29 17:00N 37°56' E 009°24'4 7.5
2017-Jul-29 16:31N 37°56' E 009°20'4 7.4
2017-Jul-29 16:00N 37°55' E 009°15'4 7.4
2017-Jul-29 15:30N 37°55' E 009°10'5 7.4
2017-Jul-29 14:49N 37°54' E 009°04'6 7.7
2017-Jul-29 14:00N 37°54' E 008°56'4 7.9
2017-Jul-29 13:30N 37°53' E 008°51'4 7.8
2017-Jul-29 12:58N 37°52' E 008°46'4 7.7
2017-Jul-29 12:29N 37°52' E 008°41'4 7.6
2017-Jul-29 12:00N 37°51' E 008°37'4 7.7
2017-Jul-29 11:27N 37°51' E 008°31'4 7.7
2017-Jul-29 10:59N 37°51' E 008°27'4 7.6
2017-Jul-29 10:30N 37°50' E 008°22'4 7.6
2017-Jul-29 09:59N 37°50' E 008°17'4 7.8
2017-Jul-29 09:30N 37°49' E 008°12'4 8.4
2017-Jul-29 09:00N 37°49' E 008°07'4 8.8
2017-Jul-29 08:30N 37°48' E 008°01'  
2017-Jul-26 21:39N 37°00' E 001°55'2 4.6
2017-Jul-26 21:10N 36°59' E 001°53'  

Dump ship's entire track history